createdAt,value
2022-10-20T00:00:21.739Z,13.00
2022-10-20T00:02:48.460Z,12.99
2022-10-20T00:05:15.189Z,12.95
2022-10-20T00:07:41.786Z,13.02
2022-10-20T00:10:08.795Z,13.04
2022-10-20T00:12:37.564Z,13.02
2022-10-20T00:15:04.549Z,13.01
2022-10-20T00:17:31.205Z,12.95
2022-10-20T00:19:58.562Z,13.02
2022-10-20T00:22:25.207Z,13.06
2022-10-20T00:24:52.357Z,12.99
2022-10-20T00:27:19.006Z,12.92
2022-10-20T00:29:47.873Z,12.95
2022-10-20T00:32:14.529Z,12.99
2022-10-20T00:34:41.259Z,12.96
2022-10-20T00:37:07.908Z,12.99
2022-10-20T00:39:34.862Z,13.02
2022-10-20T00:42:05.492Z,13.00
2022-10-20T00:44:50.692Z,12.95
2022-10-20T00:47:21.061Z,12.92
2022-10-20T00:49:48.564Z,12.87
2022-10-20T00:52:18.625Z,12.84
2022-10-20T00:54:45.285Z,12.81
2022-10-20T00:57:12.497Z,12.84
2022-10-20T00:59:39.633Z,12.81
2022-10-20T01:02:07.614Z,12.83
2022-10-20T01:04:34.845Z,12.81
2022-10-20T01:07:01.521Z,12.80
2022-10-20T01:09:28.453Z,12.79
2022-10-20T01:12:07.282Z,12.78
2022-10-20T01:15:08.322Z,12.79
2022-10-20T01:17:52.743Z,12.76
2022-10-20T01:20:40.456Z,12.81
2022-10-20T01:23:35.006Z,12.80
2022-10-20T01:26:23.305Z,12.74
2022-10-20T01:29:00.074Z,12.77
2022-10-20T01:31:45.218Z,12.72
2022-10-20T01:34:27.778Z,12.72
2022-10-20T01:36:55.879Z,12.77
2022-10-20T01:39:31.894Z,12.87
2022-10-20T01:42:09.628Z,12.84
2022-10-20T01:44:37.410Z,12.84
2022-10-20T01:47:04.073Z,12.84
2022-10-20T01:49:30.737Z,12.83
2022-10-20T01:51:57.340Z,12.80
2022-10-20T01:54:26.403Z,12.80
2022-10-20T01:57:26.214Z,12.79
2022-10-20T02:00:00.229Z,12.72
2022-10-20T02:02:56.128Z,12.68
2022-10-20T02:05:29.047Z,12.69
2022-10-20T02:08:04.081Z,12.70
2022-10-20T02:10:35.597Z,12.67
2022-10-20T02:13:06.019Z,12.63
2022-10-20T02:15:33.496Z,12.62
2022-10-20T02:18:03.952Z,12.65
2022-10-20T02:20:31.754Z,12.68
2022-10-20T02:22:59.091Z,12.64
2022-10-20T02:25:26.733Z,12.65
2022-10-20T02:27:54.337Z,12.61
2022-10-20T02:30:21.364Z,12.62
2022-10-20T02:32:50.377Z,12.65
2022-10-20T02:35:22.822Z,12.63
2022-10-20T02:37:49.512Z,12.64
2022-10-20T02:40:16.250Z,12.65
2022-10-20T02:42:43.796Z,12.69
2022-10-20T02:45:11.169Z,12.68
2022-10-20T02:47:38.598Z,12.69
2022-10-20T02:50:06.336Z,12.66
2022-10-20T02:52:32.989Z,12.66
2022-10-20T02:54:59.674Z,12.64
2022-10-20T02:57:27.011Z,12.64
2022-10-20T02:59:53.758Z,12.64
2022-10-20T03:02:20.348Z,12.71
2022-10-20T03:04:46.961Z,12.74
2022-10-20T03:07:14.094Z,12.76
2022-10-20T03:09:40.724Z,12.76
2022-10-20T03:12:07.347Z,12.80
2022-10-20T03:14:33.938Z,12.77
2022-10-20T03:17:00.608Z,12.79
2022-10-20T03:19:27.263Z,12.80
2022-10-20T03:21:53.916Z,12.77
2022-10-20T03:24:20.523Z,12.77
2022-10-20T03:26:47.161Z,12.74
2022-10-20T03:29:13.802Z,12.72
2022-10-20T03:31:40.476Z,12.72
2022-10-20T03:34:07.210Z,12.71
2022-10-20T03:36:33.839Z,12.72
2022-10-20T03:39:00.481Z,12.72
2022-10-20T03:41:27.131Z,12.73
2022-10-20T03:43:53.719Z,12.72
2022-10-20T03:46:20.398Z,12.77
2022-10-20T03:48:47.025Z,12.70
2022-10-20T03:51:14.303Z,12.68
2022-10-20T03:53:40.928Z,12.67
2022-10-20T03:56:08.715Z,12.72
2022-10-20T03:58:35.475Z,12.76
2022-10-20T04:01:02.924Z,12.77
2022-10-20T04:03:29.554Z,12.77
2022-10-20T04:05:56.153Z,12.82
2022-10-20T04:08:22.803Z,12.83
2022-10-20T04:10:49.720Z,12.82
2022-10-20T04:13:16.304Z,12.89
2022-10-20T04:15:42.895Z,12.92
2022-10-20T04:18:09.573Z,12.97
2022-10-20T04:20:37.420Z,13.01
2022-10-20T04:23:06.026Z,13.04
2022-10-20T04:25:32.662Z,13.05
2022-10-20T04:28:00.119Z,13.11
2022-10-20T04:30:27.931Z,13.15
2022-10-20T04:32:54.500Z,13.15
2022-10-20T04:35:21.155Z,13.17
2022-10-20T04:37:47.769Z,13.10
2022-10-20T04:40:14.475Z,13.17
2022-10-20T04:42:41.050Z,13.16
2022-10-20T04:45:08.130Z,13.17
2022-10-20T04:47:35.147Z,13.15
2022-10-20T04:50:02.050Z,13.18
2022-10-20T04:52:29.447Z,13.15
2022-10-20T04:55:01.592Z,13.13
2022-10-20T04:57:28.218Z,13.09
2022-10-20T04:59:54.882Z,13.06
2022-10-20T05:02:21.520Z,13.06
2022-10-20T05:04:48.868Z,13.06
2022-10-20T05:07:16.189Z,13.05
2022-10-20T05:09:42.878Z,13.03
2022-10-20T05:12:09.511Z,13.07
2022-10-20T05:14:36.153Z,13.10
2022-10-20T05:17:05.239Z,13.08
2022-10-20T05:19:34.498Z,13.09
2022-10-20T05:22:02.997Z,13.15
2022-10-20T05:24:30.178Z,13.15
2022-10-20T05:26:56.984Z,13.15
2022-10-20T05:29:24.275Z,13.17
2022-10-20T05:31:51.051Z,13.13
2022-10-20T05:34:17.698Z,13.14
2022-10-20T05:36:44.352Z,13.16
2022-10-20T05:39:11.694Z,13.15
2022-10-20T05:41:39.103Z,13.16
2022-10-20T05:44:08.618Z,13.03
2022-10-20T05:46:38.421Z,13.06
2022-10-20T05:49:05.241Z,13.05
2022-10-20T05:51:35.981Z,13.04
2022-10-20T05:54:03.344Z,12.95
2022-10-20T05:56:31.056Z,12.89
2022-10-20T05:58:58.268Z,12.98
2022-10-20T06:01:27.351Z,13.10
2022-10-20T06:03:56.201Z,13.12
2022-10-20T06:06:25.469Z,13.13
2022-10-20T06:08:52.611Z,13.16
2022-10-20T06:11:19.985Z,13.13
2022-10-20T06:13:48.631Z,13.11
2022-10-20T06:16:23.988Z,13.14
2022-10-20T06:18:50.770Z,13.17
2022-10-20T06:21:20.086Z,13.17
2022-10-20T06:23:46.847Z,13.25
2022-10-20T06:26:17.710Z,13.30
2022-10-20T06:28:45.689Z,13.32
2022-10-20T06:31:19.174Z,13.40
2022-10-20T06:33:46.482Z,13.39
2022-10-20T06:36:13.812Z,13.35
2022-10-20T06:38:41.465Z,13.47
2022-10-20T06:41:14.051Z,13.50
2022-10-20T06:43:40.612Z,13.52
2022-10-20T06:46:09.205Z,13.56
2022-10-20T06:48:36.027Z,13.63
2022-10-20T06:51:09.727Z,13.71
2022-10-20T06:53:36.841Z,13.75
2022-10-20T06:56:15.010Z,13.68
2022-10-20T06:58:43.149Z,13.60
2022-10-20T07:01:17.664Z,13.57
2022-10-20T07:03:46.031Z,13.68
2022-10-20T07:06:18.675Z,13.77
2022-10-20T07:08:45.588Z,13.78
2022-10-20T07:11:15.395Z,13.83
2022-10-20T07:13:43.012Z,13.85
2022-10-20T07:16:12.834Z,13.91
2022-10-20T07:18:39.534Z,13.96
2022-10-20T07:21:09.102Z,13.96
2022-10-20T07:23:36.443Z,13.99
2022-10-20T07:26:04.208Z,14.24
2022-10-20T07:28:31.194Z,14.32
2022-10-20T07:30:59.822Z,14.42
2022-10-20T07:33:26.470Z,14.43
2022-10-20T07:35:53.232Z,14.41
2022-10-20T07:38:19.866Z,14.39
2022-10-20T07:40:46.535Z,14.47
2022-10-20T07:43:13.141Z,14.59
2022-10-20T07:45:40.048Z,14.66
2022-10-20T07:48:07.253Z,14.62
2022-10-20T07:50:33.994Z,14.70
2022-10-20T07:53:00.634Z,14.79
2022-10-20T07:55:38.574Z,14.90
2022-10-20T07:58:06.115Z,14.98
2022-10-20T08:00:32.780Z,15.10
2022-10-20T08:02:59.488Z,15.17
2022-10-20T08:05:26.906Z,15.16
2022-10-20T08:07:53.533Z,15.22
2022-10-20T08:10:20.219Z,15.12
2022-10-20T08:12:46.960Z,15.19
2022-10-20T08:15:14.042Z,15.18
2022-10-20T08:17:40.706Z,15.09
2022-10-20T08:20:14.874Z,15.25
2022-10-20T08:22:41.546Z,15.25
2022-10-20T08:25:12.511Z,15.36
2022-10-20T08:27:39.186Z,15.45
2022-10-20T08:30:22.947Z,15.58
2022-10-20T08:32:53.740Z,15.67
2022-10-20T08:35:22.133Z,15.74
2022-10-20T08:37:48.784Z,15.81
2022-10-20T08:40:29.772Z,15.93
2022-10-20T08:42:56.908Z,15.85
2022-10-20T08:45:26.121Z,15.80
2022-10-20T08:47:55.103Z,15.85
2022-10-20T08:50:22.488Z,15.93
2022-10-20T08:52:54.970Z,16.03
2022-10-20T08:55:24.870Z,16.04
2022-10-20T08:57:51.517Z,16.06
2022-10-20T09:00:21.812Z,16.12
2022-10-20T09:02:50.378Z,16.12
2022-10-20T09:05:21.100Z,16.23
2022-10-20T09:07:51.486Z,16.31
2022-10-20T09:10:22.735Z,16.39
2022-10-20T09:12:49.969Z,16.54
2022-10-20T09:15:17.981Z,16.63
2022-10-20T09:18:03.324Z,16.73
2022-10-20T09:20:53.957Z,16.62
2022-10-20T09:23:41.883Z,16.77
2022-10-20T09:26:30.574Z,16.81
2022-10-20T09:29:14.850Z,16.95
2022-10-20T09:31:43.160Z,17.06
2022-10-20T09:34:23.566Z,17.08
2022-10-20T09:36:52.198Z,17.13
2022-10-20T09:39:24.688Z,17.14
2022-10-20T09:41:51.468Z,17.06
2022-10-20T09:44:23.842Z,17.17
2022-10-20T09:46:51.692Z,17.20
2022-10-20T09:49:31.142Z,17.24
2022-10-20T09:51:58.055Z,17.18
2022-10-20T09:54:26.003Z,17.26
2022-10-20T09:56:53.262Z,17.06
2022-10-20T09:59:25.373Z,16.95
2022-10-20T10:01:57.420Z,17.13
2022-10-20T10:04:51.206Z,17.21
2022-10-20T10:07:27.018Z,17.34
2022-10-20T10:10:03.933Z,17.45
2022-10-20T10:12:35.952Z,17.47
2022-10-20T10:15:11.464Z,17.42
2022-10-20T10:17:40.565Z,17.65
2022-10-20T10:20:29.898Z,17.81
2022-10-20T10:23:18.309Z,17.75
2022-10-20T10:25:45.089Z,17.90
2022-10-20T10:28:28.689Z,17.95
2022-10-20T10:31:18.667Z,18.01
2022-10-20T10:33:45.494Z,18.17
2022-10-20T10:36:34.285Z,18.27
2022-10-20T10:39:02.206Z,18.30
2022-10-20T10:41:50.972Z,18.36
2022-10-20T10:44:40.879Z,18.42
2022-10-20T10:47:16.532Z,18.30
2022-10-20T10:49:55.588Z,18.18
2022-10-20T10:52:35.020Z,18.14
2022-10-20T10:55:47.125Z,18.15
2022-10-20T10:58:34.324Z,18.26
2022-10-20T11:01:19.443Z,18.41
2022-10-20T11:04:28.124Z,18.44
2022-10-20T11:07:14.828Z,18.42
2022-10-20T11:09:56.618Z,18.50
2022-10-20T11:12:48.055Z,18.45
2022-10-20T11:15:34.042Z,18.60
2022-10-20T11:18:37.886Z,18.46
2022-10-20T11:21:23.391Z,18.29
2022-10-20T11:24:27.142Z,18.24
2022-10-20T11:27:02.277Z,18.10
2022-10-20T11:29:34.640Z,18.14
2022-10-20T11:32:27.222Z,18.30
2022-10-20T11:35:04.741Z,18.49
2022-10-20T11:37:36.266Z,18.58
2022-10-20T11:40:09.105Z,18.53
2022-10-20T11:43:13.434Z,18.51
2022-10-20T11:45:39.955Z,18.33
2022-10-20T11:48:22.685Z,18.49
2022-10-20T11:51:13.676Z,18.42
2022-10-20T11:53:46.457Z,18.56
2022-10-20T11:56:26.074Z,18.65
2022-10-20T11:59:01.965Z,18.50
2022-10-20T12:01:54.516Z,18.20
2022-10-20T12:04:46.212Z,17.99
2022-10-20T12:07:24.906Z,18.07
2022-10-20T12:10:18.361Z,18.23
2022-10-20T12:13:26.778Z,18.34
2022-10-20T12:15:53.467Z,18.52
2022-10-20T12:18:33.689Z,18.43
2022-10-20T12:21:08.483Z,18.47
2022-10-20T12:23:48.965Z,18.57
2022-10-20T12:26:30.584Z,18.26
2022-10-20T12:28:57.594Z,18.22
2022-10-20T12:31:25.839Z,18.19
2022-10-20T12:33:53.427Z,18.30
2022-10-20T12:36:20.022Z,18.39
2022-10-20T12:38:49.765Z,18.33
2022-10-20T12:41:34.940Z,18.19
2022-10-20T12:44:15.662Z,18.25
2022-10-20T12:46:44.159Z,18.27
2022-10-20T12:49:22.784Z,18.28
2022-10-20T12:51:52.156Z,18.22
2022-10-20T12:54:48.700Z,18.20
2022-10-20T12:57:35.548Z,18.16
2022-10-20T13:00:04.216Z,17.93
2022-10-20T13:02:44.682Z,17.90
2022-10-20T13:05:14.306Z,17.84
2022-10-20T13:07:46.787Z,17.75
2022-10-20T13:10:31.784Z,17.72
2022-10-20T13:13:01.135Z,17.55
2022-10-20T13:15:42.747Z,17.30
2022-10-20T13:18:12.560Z,17.10
2022-10-20T13:20:57.951Z,16.91
2022-10-20T13:23:56.924Z,16.84
2022-10-20T13:26:45.256Z,16.73
2022-10-20T13:29:39.612Z,16.59
2022-10-20T13:32:32.107Z,16.67
2022-10-20T13:35:09.440Z,16.74
2022-10-20T13:37:47.098Z,16.65
2022-10-20T13:40:27.281Z,16.65
2022-10-20T13:42:59.823Z,16.70
2022-10-20T13:45:44.864Z,16.80
2022-10-20T13:48:53.380Z,16.89
2022-10-20T13:51:25.012Z,16.90
2022-10-20T13:53:54.618Z,16.88
2022-10-20T13:56:35.490Z,16.96
2022-10-20T13:59:06.373Z,17.04
2022-10-20T14:01:35.331Z,17.09
2022-10-20T14:04:02.291Z,17.09
2022-10-20T14:06:34.627Z,17.12
2022-10-20T14:09:12.376Z,17.13
2022-10-20T14:11:39.985Z,17.11
2022-10-20T14:14:06.665Z,17.14
2022-10-20T14:16:33.663Z,17.19
2022-10-20T14:19:09.297Z,17.17
2022-10-20T14:21:41.267Z,17.15
2022-10-20T14:24:14.155Z,17.05
2022-10-20T14:26:44.088Z,17.00
2022-10-20T14:29:14.725Z,17.08
2022-10-20T14:31:41.810Z,17.09
2022-10-20T14:34:19.951Z,16.98
2022-10-20T14:36:47.245Z,17.01
2022-10-20T14:39:22.715Z,16.98
2022-10-20T14:41:50.776Z,17.02
2022-10-20T14:44:30.949Z,16.97
2022-10-20T14:47:00.839Z,16.95
2022-10-20T14:49:30.268Z,16.92
2022-10-20T14:51:59.808Z,16.94
2022-10-20T14:54:27.768Z,16.95
2022-10-20T14:57:01.263Z,16.91
2022-10-20T14:59:33.351Z,16.87
2022-10-20T15:02:12.613Z,16.89
2022-10-20T15:04:43.218Z,16.94
2022-10-20T15:07:18.263Z,16.94
2022-10-20T15:09:53.703Z,16.90
2022-10-20T15:12:22.778Z,16.92
2022-10-20T15:14:54.752Z,16.92
2022-10-20T15:17:41.264Z,17.01
2022-10-20T15:20:30.517Z,16.97
2022-10-20T15:22:59.064Z,16.94
2022-10-20T15:25:31.097Z,16.84
2022-10-20T15:27:58.575Z,16.83
2022-10-20T15:30:26.087Z,16.83
2022-10-20T15:32:53.621Z,16.87
2022-10-20T15:35:22.875Z,16.84
2022-10-20T15:37:52.071Z,16.83
2022-10-20T15:40:19.784Z,16.79
2022-10-20T15:42:46.601Z,16.81
2022-10-20T15:45:16.940Z,16.86
2022-10-20T15:47:44.256Z,16.78
2022-10-20T15:50:11.281Z,16.80
2022-10-20T15:52:38.508Z,16.72
2022-10-20T15:55:22.617Z,16.75
2022-10-20T15:57:50.938Z,16.66
2022-10-20T16:00:18.362Z,16.65
2022-10-20T16:02:45.131Z,16.75
2022-10-20T16:05:12.286Z,16.72
2022-10-20T16:07:39.446Z,16.73
2022-10-20T16:10:07.699Z,16.76
2022-10-20T16:12:34.566Z,16.65
2022-10-20T16:15:01.538Z,16.63
2022-10-20T16:17:28.217Z,16.59
2022-10-20T16:19:54.873Z,16.53
2022-10-20T16:22:21.681Z,16.47
2022-10-20T16:24:48.518Z,16.50
2022-10-20T16:27:16.194Z,16.55
2022-10-20T16:29:45.162Z,16.54
2022-10-20T16:32:14.374Z,16.33
2022-10-20T16:34:41.010Z,16.33
2022-10-20T16:37:08.002Z,16.36
2022-10-20T16:39:34.593Z,16.44
2022-10-20T16:42:01.276Z,16.40
2022-10-20T16:44:28.012Z,16.39
2022-10-20T16:46:54.683Z,16.41
2022-10-20T16:49:21.393Z,16.36
2022-10-20T16:51:48.036Z,16.35
2022-10-20T16:54:14.702Z,16.38
2022-10-20T16:56:41.392Z,16.40
2022-10-20T16:59:08.351Z,16.44
2022-10-20T17:01:35.016Z,16.42
2022-10-20T17:04:01.645Z,16.37
2022-10-20T17:06:28.288Z,16.33
2022-10-20T17:08:55.002Z,16.37
2022-10-20T17:11:27.207Z,16.40
2022-10-20T17:13:54.305Z,16.44
2022-10-20T17:16:28.605Z,16.39
2022-10-20T17:18:57.047Z,16.39
2022-10-20T17:21:24.026Z,16.34
2022-10-20T17:23:50.614Z,16.36
2022-10-20T17:26:19.877Z,16.26
2022-10-20T17:28:47.029Z,16.24
2022-10-20T17:33:44.347Z,16.27
2022-10-20T17:36:14.238Z,16.31
2022-10-20T17:38:41.724Z,16.33
2022-10-20T17:41:10.860Z,16.32
2022-10-20T17:43:37.684Z,16.27
2022-10-20T17:46:10.792Z,16.24
2022-10-20T17:48:38.014Z,16.27
2022-10-20T17:51:10.915Z,16.26
2022-10-20T17:53:39.741Z,16.24
2022-10-20T17:56:31.431Z,16.23
2022-10-20T17:58:59.730Z,16.24
2022-10-20T18:01:31.086Z,16.17
2022-10-20T18:04:06.596Z,16.14
2022-10-20T18:06:34.813Z,16.24
2022-10-20T18:09:07.405Z,16.28
2022-10-20T18:11:35.420Z,16.20
2022-10-20T18:14:02.440Z,16.15
2022-10-20T18:16:31.413Z,16.13
2022-10-20T18:21:48.328Z,16.16
2022-10-20T18:24:16.373Z,16.23
2022-10-20T18:26:43.222Z,16.21
2022-10-20T18:29:10.670Z,16.20
2022-10-20T18:31:39.510Z,16.16
2022-10-20T18:34:18.268Z,16.08
2022-10-20T18:36:45.892Z,16.00
2022-10-20T18:39:13.584Z,15.99
2022-10-20T18:41:40.908Z,15.93
2022-10-20T18:44:11.740Z,15.93
2022-10-20T18:46:39.822Z,15.85
2022-10-20T18:49:07.730Z,15.84
2022-10-20T18:51:35.980Z,15.81
2022-10-20T18:54:03.376Z,15.88
2022-10-20T18:56:30.266Z,15.90
2022-10-20T18:59:02.831Z,15.89
2022-10-20T19:01:35.084Z,15.86
2022-10-20T19:04:02.612Z,15.83
2022-10-20T19:06:34.447Z,15.79
2022-10-20T19:09:03.664Z,15.80
2022-10-20T19:11:32.448Z,15.84
2022-10-20T19:13:59.826Z,15.78
2022-10-20T19:16:32.158Z,15.74
2022-10-20T19:19:00.446Z,15.74
2022-10-20T19:21:28.542Z,15.71
2022-10-20T19:24:04.450Z,15.72
2022-10-20T19:26:57.118Z,15.70
2022-10-20T19:29:32.831Z,15.65
2022-10-20T19:32:01.206Z,15.67
2022-10-20T19:34:31.357Z,15.68
2022-10-20T19:36:58.879Z,15.70
2022-10-20T19:39:28.418Z,15.69
2022-10-20T19:41:56.341Z,15.64
2022-10-20T19:44:23.261Z,15.57
2022-10-20T19:46:51.583Z,15.62
2022-10-20T19:49:19.305Z,15.58
2022-10-20T19:51:46.038Z,15.53
2022-10-20T19:54:13.142Z,15.61
2022-10-20T19:56:40.965Z,15.39
2022-10-20T19:59:08.263Z,15.50
2022-10-20T20:01:35.541Z,15.55
2022-10-20T20:04:02.331Z,15.41
2022-10-20T20:06:29.079Z,15.49
2022-10-20T20:09:02.297Z,15.54
2022-10-20T20:11:31.075Z,15.54
2022-10-20T20:13:58.923Z,15.55
2022-10-20T20:16:26.368Z,15.49
2022-10-20T20:18:53.491Z,15.53
2022-10-20T20:21:20.770Z,15.50
2022-10-20T20:23:59.000Z,15.52
2022-10-20T20:26:27.203Z,15.53
2022-10-20T20:28:54.960Z,15.49
2022-10-20T20:31:22.351Z,15.51
2022-10-20T20:33:49.575Z,15.54
2022-10-20T20:36:16.432Z,15.45
2022-10-20T20:38:43.139Z,15.32
2022-10-20T20:41:17.705Z,15.41
2022-10-20T20:43:47.177Z,15.43
2022-10-20T20:46:20.343Z,15.44
2022-10-20T20:48:47.113Z,15.45
2022-10-20T20:51:14.876Z,15.40
2022-10-20T20:53:41.826Z,15.42
2022-10-20T20:56:11.725Z,15.48
2022-10-20T20:58:38.613Z,15.47
2022-10-20T21:01:07.337Z,15.34
2022-10-20T21:03:34.695Z,15.32
2022-10-20T21:06:08.525Z,15.32
2022-10-20T21:08:39.640Z,15.37
2022-10-20T21:11:16.819Z,15.47
2022-10-20T21:13:44.608Z,15.50
2022-10-20T21:16:14.181Z,15.49
2022-10-20T21:18:42.993Z,15.50
2022-10-20T21:21:15.280Z,15.46
2022-10-20T21:23:42.209Z,15.41
2022-10-20T21:26:10.032Z,15.44
2022-10-20T21:28:37.173Z,15.39
2022-10-20T21:31:08.329Z,15.40
2022-10-20T21:33:36.232Z,15.35
2022-10-20T21:36:08.131Z,15.34
2022-10-20T21:38:36.154Z,15.36
2022-10-20T21:41:26.996Z,15.28
2022-10-20T21:43:55.839Z,15.30
2022-10-20T21:46:51.830Z,15.24
2022-10-20T21:49:21.477Z,15.15
2022-10-20T21:51:52.108Z,15.11
2022-10-20T21:57:08.740Z,15.11
2022-10-20T21:59:35.324Z,15.11
2022-10-20T22:02:02.087Z,15.09
2022-10-20T22:04:29.774Z,15.10
2022-10-20T22:06:57.143Z,15.15
2022-10-20T22:09:24.394Z,15.19
2022-10-20T22:11:55.084Z,15.17
2022-10-20T22:14:22.155Z,15.14
2022-10-20T22:16:48.829Z,15.19
2022-10-20T22:19:18.070Z,15.17
2022-10-20T22:21:47.072Z,15.14
2022-10-20T22:24:14.632Z,15.20
2022-10-20T22:26:41.729Z,15.19
2022-10-20T22:29:11.691Z,15.17
2022-10-20T22:31:39.668Z,15.19
2022-10-20T22:34:07.453Z,15.14
2022-10-20T22:36:34.470Z,15.16
2022-10-20T22:39:01.228Z,15.19
2022-10-20T22:41:28.169Z,15.15
2022-10-20T22:43:54.901Z,15.10
2022-10-20T22:46:21.492Z,15.01
2022-10-20T22:48:48.196Z,15.00
2022-10-20T22:51:15.518Z,15.03
2022-10-20T22:53:42.545Z,15.00
2022-10-20T22:56:11.967Z,15.04
2022-10-20T22:58:38.891Z,15.01
2022-10-20T23:01:10.090Z,15.07
2022-10-20T23:03:37.271Z,15.01
2022-10-20T23:06:09.416Z,14.93
2022-10-20T23:08:44.475Z,14.89
2022-10-20T23:11:11.818Z,14.84
2022-10-20T23:13:38.687Z,14.84
2022-10-20T23:16:05.950Z,14.79
2022-10-20T23:18:33.146Z,14.75
2022-10-20T23:20:59.942Z,14.69
2022-10-20T23:23:26.831Z,14.65
2022-10-20T23:25:53.560Z,14.70
2022-10-20T23:28:20.171Z,14.68
2022-10-20T23:30:47.562Z,14.67
2022-10-20T23:33:14.586Z,14.62
2022-10-20T23:35:41.322Z,14.59
2022-10-20T23:38:09.477Z,14.61
2022-10-20T23:40:36.792Z,14.66
2022-10-20T23:43:03.625Z,14.66
2022-10-20T23:45:31.837Z,14.62
2022-10-20T23:48:00.867Z,14.56
2022-10-20T23:50:27.468Z,14.52
2022-10-20T23:52:54.145Z,14.47
2022-10-20T23:55:20.857Z,14.50
2022-10-20T23:57:49.291Z,14.54
